createdAt,value
2019-06-10T00:00:31.285Z,68.51
2019-06-10T00:01:31.487Z,68.22
2019-06-10T00:02:30.878Z,67.74
2019-06-10T00:03:31.801Z,67.65
2019-06-10T00:04:30.895Z,67.74
2019-06-10T00:05:30.543Z,67.35
2019-06-10T00:06:31.110Z,67.68
2019-06-10T00:07:31.595Z,67.45
2019-06-10T00:08:30.817Z,67.07
2019-06-10T00:09:31.189Z,67.26
2019-06-10T00:10:31.099Z,67.55
2019-06-10T00:11:31.489Z,67.16
2019-06-10T00:12:31.385Z,67.55
2019-06-10T00:13:31.381Z,67.29
2019-06-10T00:14:31.500Z,67.45
2019-06-10T00:15:31.416Z,66.81
2019-06-10T00:16:30.898Z,67.49
2019-06-10T00:17:31.456Z,67.26
2019-06-10T00:18:38.426Z,67.16
2019-06-10T00:19:31.690Z,67.35
2019-06-10T00:20:30.642Z,66.91
2019-06-10T00:21:30.868Z,66.39
2019-06-10T00:22:31.499Z,67.39
2019-06-10T00:23:32.034Z,67.16
2019-06-10T00:24:31.446Z,66.97
2019-06-10T00:25:31.365Z,67.65
2019-06-10T00:26:30.832Z,67.65
2019-06-10T00:27:31.186Z,66.81
2019-06-10T00:28:31.110Z,66.39
2019-06-10T00:29:31.273Z,66.58
2019-06-10T00:30:31.321Z,66.71
2019-06-10T00:31:31.242Z,66.24
2019-06-10T00:32:32.022Z,65.72
2019-06-10T00:33:30.955Z,65.85
2019-06-10T00:34:31.583Z,65.66
2019-06-10T00:35:31.507Z,65.94
2019-06-10T00:36:30.866Z,66.30
2019-06-10T00:37:31.514Z,65.63
2019-06-10T00:38:31.925Z,65.91
2019-06-10T00:39:31.284Z,66.01
2019-06-10T00:40:31.688Z,66.42
2019-06-10T00:41:31.255Z,66.39
2019-06-10T00:42:31.416Z,65.75
2019-06-10T00:43:30.763Z,65.91
2019-06-10T00:44:31.151Z,66.91
2019-06-10T00:45:31.562Z,66.68
2019-06-10T00:46:31.677Z,65.91
2019-06-10T00:47:30.841Z,66.68
2019-06-10T00:48:32.286Z,66.88
2019-06-10T00:49:31.683Z,66.49
2019-06-10T00:50:30.877Z,66.49
2019-06-10T00:51:31.356Z,67.55
2019-06-10T00:52:30.850Z,67.19
2019-06-10T00:53:31.694Z,68.22
2019-06-10T00:54:31.159Z,68.51
2019-06-10T00:55:31.442Z,68.03
2019-06-10T00:56:30.881Z,68.41
2019-06-10T00:57:31.466Z,68.74
2019-06-10T00:58:32.031Z,68.80
2019-06-10T00:59:31.198Z,68.51
2019-06-10T01:00:31.825Z,69.28
2019-06-10T01:01:31.267Z,68.60
2019-06-10T01:02:31.861Z,67.74
2019-06-10T01:03:31.323Z,67.65
2019-06-10T01:04:31.859Z,68.13
2019-06-10T01:05:31.259Z,68.60
2019-06-10T01:06:31.827Z,68.80
2019-06-10T01:07:31.090Z,69.38
2019-06-10T01:08:31.591Z,69.57
2019-06-10T01:09:31.090Z,69.67
2019-06-10T01:10:31.655Z,69.09
2019-06-10T01:11:31.146Z,69.28
2019-06-10T01:12:31.662Z,68.51
2019-06-10T01:13:30.970Z,69.18
2019-06-10T01:14:31.987Z,69.38
2019-06-10T01:15:31.211Z,69.09
2019-06-10T01:16:31.805Z,69.09
2019-06-10T01:17:31.157Z,68.99
2019-06-10T01:18:37.476Z,69.95
2019-06-10T01:19:31.074Z,70.34
2019-06-10T01:20:32.451Z,70.05
2019-06-10T01:21:31.377Z,69.85
2019-06-10T01:22:31.605Z,69.95
2019-06-10T01:23:31.077Z,70.05
2019-06-10T01:24:31.476Z,69.85
2019-06-10T01:25:31.082Z,69.09
2019-06-10T01:26:31.101Z,69.44
2019-06-10T01:27:31.522Z,69.28
2019-06-10T01:28:31.436Z,69.53
2019-06-10T01:29:31.392Z,70.05
2019-06-10T01:30:31.239Z,69.82
2019-06-10T01:31:31.793Z,70.11
2019-06-10T01:32:31.176Z,69.76
2019-06-10T01:33:31.960Z,70.15
2019-06-10T01:34:31.071Z,69.63
2019-06-10T01:35:30.661Z,70.24
2019-06-10T01:36:31.385Z,71.36
2019-06-10T01:37:31.101Z,71.01
2019-06-10T01:38:31.679Z,70.88
2019-06-10T01:39:30.966Z,70.68
2019-06-10T01:40:31.464Z,70.68
2019-06-10T01:41:30.715Z,71.08
2019-06-10T01:42:30.777Z,70.40
2019-06-10T01:43:32.059Z,70.40
2019-06-10T01:44:31.128Z,70.01
2019-06-10T01:45:31.224Z,69.53
2019-06-10T01:46:31.668Z,68.96
2019-06-10T01:47:31.065Z,69.44
2019-06-10T01:48:43.787Z,68.96
2019-06-10T01:49:30.894Z,68.86
2019-06-10T01:50:31.151Z,68.96
2019-06-10T01:51:31.697Z,68.96
2019-06-10T01:52:31.688Z,69.06
2019-06-10T01:53:31.418Z,68.96
2019-06-10T01:54:31.652Z,69.24
2019-06-10T01:55:31.152Z,69.34
2019-06-10T01:56:31.515Z,68.96
2019-06-10T01:57:30.886Z,69.24
2019-06-10T01:58:31.538Z,69.53
2019-06-10T01:59:31.246Z,69.34
2019-06-10T02:00:31.209Z,69.44
2019-06-10T02:01:30.780Z,69.53
2019-06-10T02:02:34.967Z,69.44
2019-06-10T02:03:31.388Z,69.63
2019-06-10T02:04:32.063Z,69.34
2019-06-10T02:05:31.194Z,69.53
2019-06-10T02:06:31.718Z,70.11
2019-06-10T02:07:32.029Z,70.01
2019-06-10T02:08:31.671Z,70.21
2019-06-10T02:09:31.115Z,69.82
2019-06-10T02:10:31.045Z,70.01
2019-06-10T02:11:31.726Z,69.82
2019-06-10T02:12:31.471Z,70.11
2019-06-10T02:13:32.417Z,70.59
2019-06-10T02:14:31.762Z,70.78
2019-06-10T02:15:31.525Z,71.08
2019-06-10T02:16:32.539Z,70.88
2019-06-10T02:17:31.475Z,71.08
2019-06-10T02:18:31.996Z,71.55
2019-06-10T02:19:31.277Z,71.75
2019-06-10T02:20:31.750Z,71.71
2019-06-10T02:21:31.189Z,71.81
2019-06-10T02:22:31.849Z,72.38
2019-06-10T02:23:31.476Z,72.48
2019-06-10T02:24:31.512Z,72.90
2019-06-10T02:25:30.680Z,73.35
2019-06-10T02:26:30.919Z,73.86
2019-06-10T02:27:31.521Z,73.57
2019-06-10T02:28:31.785Z,74.30
2019-06-10T02:29:30.917Z,73.86
2019-06-10T02:30:44.465Z,74.05
2019-06-10T02:31:37.260Z,74.11
2019-06-10T02:32:36.254Z,73.86
2019-06-10T02:33:36.216Z,74.98
2019-06-10T02:34:36.632Z,77.51
2019-06-10T02:35:44.056Z,80.55
2019-06-10T02:36:36.237Z,82.19
2019-06-10T02:37:33.937Z,82.67
2019-06-10T02:38:35.574Z,83.34
2019-06-10T02:39:35.139Z,85.46
2019-06-10T02:40:33.132Z,83.63
2019-06-10T02:41:35.367Z,84.69
2019-06-10T02:42:34.837Z,83.63
2019-06-10T02:43:33.266Z,85.75
2019-06-10T02:44:34.362Z,85.89
2019-06-10T02:45:33.753Z,86.38
2019-06-10T02:46:35.588Z,87.92
2019-06-10T02:47:33.439Z,86.85
2019-06-10T02:48:34.139Z,86.28
2019-06-10T02:49:51.600Z,86.28
2019-06-10T02:50:33.331Z,86.76
2019-06-10T02:51:35.208Z,87.77
2019-06-10T02:52:34.296Z,87.82
2019-06-10T02:53:35.334Z,88.01
2019-06-10T02:54:35.477Z,87.72
2019-06-10T02:55:34.790Z,88.01
2019-06-10T02:56:35.924Z,87.68
2019-06-10T02:57:39.032Z,88.06
2019-06-10T02:58:37.971Z,87.19
2019-06-10T02:59:32.813Z,85.95
2019-06-10T03:00:39.602Z,87.82
2019-06-10T03:01:36.998Z,87.39
2019-06-10T03:02:35.931Z,88.10
2019-06-10T03:03:39.305Z,87.62
2019-06-10T03:04:36.517Z,87.24
2019-06-10T03:05:40.312Z,87.24
2019-06-10T03:06:38.510Z,86.38
2019-06-10T03:07:34.613Z,86.47
2019-06-10T03:08:32.758Z,85.51
2019-06-10T03:09:32.880Z,85.41
2019-06-10T03:10:36.101Z,84.07
2019-06-10T03:11:36.021Z,84.17
2019-06-10T03:12:33.107Z,85.37
2019-06-10T03:13:33.137Z,85.37
2019-06-10T03:14:32.874Z,85.51
2019-06-10T03:15:32.145Z,86.09
2019-06-10T03:16:32.924Z,85.37
2019-06-10T03:17:32.290Z,85.51
2019-06-10T03:18:32.815Z,85.41
2019-06-10T03:19:46.547Z,86.28
2019-06-10T03:20:32.034Z,86.47
2019-06-10T03:21:32.392Z,86.47
2019-06-10T03:22:32.734Z,85.99
2019-06-10T03:23:32.063Z,85.51
2019-06-10T03:24:32.773Z,83.73
2019-06-10T03:25:32.812Z,85.55
2019-06-10T03:26:32.330Z,85.84
2019-06-10T03:27:32.866Z,86.42
2019-06-10T03:28:32.068Z,85.84
2019-06-10T03:29:32.762Z,86.52
2019-06-10T03:30:46.648Z,85.55
2019-06-10T03:31:38.862Z,84.59
2019-06-10T03:32:36.701Z,84.88
2019-06-10T03:33:40.318Z,84.50
2019-06-10T03:34:37.252Z,85.75
2019-06-10T03:35:32.950Z,85.27
2019-06-10T03:36:32.252Z,85.27
2019-06-10T03:37:32.891Z,85.07
2019-06-10T03:38:32.548Z,84.40
2019-06-10T03:39:32.275Z,83.92
2019-06-10T03:40:32.820Z,84.98
2019-06-10T03:41:32.299Z,84.88
2019-06-10T03:42:32.491Z,85.17
2019-06-10T03:43:32.886Z,85.55
2019-06-10T03:44:32.918Z,85.55
2019-06-10T03:45:32.379Z,86.13
2019-06-10T03:46:32.863Z,87.09
2019-06-10T03:47:32.481Z,86.90
2019-06-10T03:48:32.794Z,87.19
2019-06-10T03:49:32.164Z,87.76
2019-06-10T03:50:32.495Z,88.53
2019-06-10T03:51:33.169Z,89.59
2019-06-10T03:52:32.434Z,88.44
2019-06-10T03:53:33.352Z,89.88
2019-06-10T03:54:32.556Z,89.21
2019-06-10T03:55:33.049Z,91.13
2019-06-10T03:56:32.232Z,90.36
2019-06-10T03:57:32.968Z,90.17
2019-06-10T03:58:32.675Z,89.30
2019-06-10T03:59:32.409Z,89.59
2019-06-10T04:00:32.792Z,89.36
2019-06-10T04:01:33.150Z,89.83
2019-06-10T04:02:32.691Z,90.89
2019-06-10T04:03:33.543Z,91.37
2019-06-10T04:04:32.801Z,90.89
2019-06-10T04:05:33.004Z,91.56
2019-06-10T04:06:33.703Z,90.70
2019-06-10T04:07:34.073Z,91.66
2019-06-10T04:08:32.902Z,93.01
2019-06-10T04:09:32.970Z,92.52
2019-06-10T04:10:32.439Z,93.29
2019-06-10T04:11:32.999Z,97.42
2019-06-10T04:12:32.765Z,98.29
2019-06-10T04:13:33.483Z,99.99
2019-06-10T04:14:32.764Z,99.99
2019-06-10T04:15:32.557Z,99.99
2019-06-10T04:16:32.765Z,99.99
2019-06-10T04:17:33.177Z,99.99
2019-06-10T04:18:32.774Z,99.99
2019-06-10T04:19:32.752Z,99.99
2019-06-10T04:20:33.086Z,99.58
2019-06-10T04:21:32.619Z,99.20
2019-06-10T04:22:32.946Z,98.14
2019-06-10T04:23:33.213Z,98.53
2019-06-10T04:24:32.646Z,99.78
2019-06-10T04:25:32.406Z,98.29
2019-06-10T04:26:32.738Z,99.44
2019-06-10T04:27:32.802Z,99.99
2019-06-10T04:28:33.538Z,99.99
2019-06-10T04:29:32.888Z,99.99
2019-06-10T04:30:32.526Z,99.99
2019-06-10T04:31:33.061Z,99.99
2019-06-10T04:32:32.336Z,99.99
2019-06-10T04:33:32.942Z,99.99
2019-06-10T04:34:33.235Z,99.99
2019-06-10T04:35:30.961Z,99.99
2019-06-10T04:36:33.095Z,99.99
2019-06-10T04:37:32.461Z,99.99
2019-06-10T04:38:32.755Z,99.99
2019-06-10T04:39:33.484Z,99.99
2019-06-10T04:44:42.332Z,99.99
2019-06-10T04:45:42.962Z,99.99
2019-06-10T04:46:42.754Z,99.99
2019-06-10T04:47:43.216Z,99.99
2019-06-10T04:48:42.775Z,99.99
2019-06-10T04:49:42.819Z,99.99
2019-06-10T04:50:46.027Z,99.99
2019-06-10T04:51:43.464Z,99.99
2019-06-10T04:52:43.111Z,99.99
2019-06-10T04:53:43.562Z,99.99
2019-06-10T04:54:42.115Z,99.99
2019-06-10T04:55:43.101Z,99.99
2019-06-10T04:56:42.860Z,99.99
2019-06-10T04:57:43.148Z,99.99
2019-06-10T04:58:43.354Z,99.99
2019-06-10T04:59:42.828Z,99.99
2019-06-10T05:00:42.884Z,99.99
2019-06-10T05:01:42.629Z,99.99
2019-06-10T05:02:43.104Z,99.99
2019-06-10T05:03:43.401Z,99.99
2019-06-10T05:04:42.621Z,99.99
2019-06-10T05:05:43.040Z,99.99
2019-06-10T05:06:42.380Z,99.99
2019-06-10T05:07:42.737Z,99.99
2019-06-10T05:08:42.644Z,99.99
2019-06-10T05:09:42.226Z,99.99
2019-06-10T05:10:42.424Z,99.99
2019-06-10T05:11:43.078Z,99.99
2019-06-10T05:12:43.322Z,99.99
2019-06-10T05:13:42.998Z,99.99
2019-06-10T05:14:43.266Z,99.99
2019-06-10T05:15:43.397Z,99.99
2019-06-10T05:16:43.161Z,99.99
2019-06-10T05:17:43.631Z,99.99
2019-06-10T05:18:42.510Z,99.99
2019-06-10T05:19:42.845Z,99.99
2019-06-10T05:20:54.135Z,99.99
2019-06-10T05:21:42.420Z,99.99
2019-06-10T05:22:42.420Z,99.99
2019-06-10T05:23:42.948Z,99.99
2019-06-10T05:24:42.427Z,99.99
2019-06-10T05:25:42.777Z,99.99
2019-06-10T05:26:42.595Z,99.99
2019-06-10T05:27:42.897Z,99.99
2019-06-10T05:28:43.273Z,99.99
2019-06-10T05:29:42.240Z,99.99
2019-06-10T05:30:42.640Z,99.99
2019-06-10T05:31:43.685Z,99.99
2019-06-10T05:32:43.243Z,99.99
2019-06-10T05:33:42.654Z,99.99
2019-06-10T05:34:43.715Z,99.99
2019-06-10T05:35:42.719Z,99.99
2019-06-10T05:36:43.581Z,99.99
2019-06-10T05:37:42.275Z,99.99
2019-06-10T05:38:43.522Z,99.99
2019-06-10T05:39:42.393Z,99.99
2019-06-10T05:40:42.776Z,99.99
2019-06-10T05:41:43.339Z,99.99
2019-06-10T05:42:42.568Z,99.99
2019-06-10T05:43:42.978Z,99.99
2019-06-10T05:44:43.056Z,99.99
2019-06-10T05:45:42.439Z,99.99
2019-06-10T05:46:43.534Z,99.99
2019-06-10T05:47:42.764Z,99.99
2019-06-10T05:48:43.775Z,99.99
2019-06-10T05:49:43.136Z,99.99
2019-06-10T05:50:42.819Z,99.99
2019-06-10T05:51:42.502Z,99.99
2019-06-10T05:52:42.743Z,99.99
2019-06-10T05:53:42.655Z,99.99
2019-06-10T05:54:43.127Z,99.99
2019-06-10T05:55:42.738Z,99.99
2019-06-10T05:56:43.283Z,99.99
2019-06-10T05:57:42.826Z,99.99
2019-06-10T05:58:43.655Z,99.99
2019-06-10T05:59:43.247Z,99.99
2019-06-10T06:00:42.860Z,99.99
2019-06-10T06:01:43.167Z,99.99
2019-06-10T06:02:43.268Z,99.99
2019-06-10T06:03:44.016Z,99.99
2019-06-10T06:04:42.841Z,99.99
2019-06-10T06:05:43.352Z,99.99
2019-06-10T06:06:45.001Z,99.99
2019-06-10T06:07:42.310Z,99.99
2019-06-10T06:08:42.980Z,99.99
2019-06-10T06:09:42.682Z,99.99
2019-06-10T06:10:42.494Z,99.99
2019-06-10T06:11:43.087Z,99.99
2019-06-10T06:12:42.524Z,99.99
2019-06-10T06:13:43.284Z,99.99
2019-06-10T06:14:42.607Z,99.99
2019-06-10T06:15:42.402Z,99.99
2019-06-10T06:16:43.339Z,99.99
2019-06-10T06:17:43.198Z,99.99
2019-06-10T06:18:42.411Z,99.99
2019-06-10T06:19:43.338Z,99.99
2019-06-10T06:20:43.612Z,99.99
2019-06-10T06:21:47.385Z,99.99
2019-06-10T06:22:42.837Z,99.99
2019-06-10T06:23:43.618Z,99.99
2019-06-10T06:24:42.773Z,99.99
2019-06-10T06:25:44.262Z,99.99
2019-06-10T06:26:43.053Z,99.99
2019-06-10T06:27:42.156Z,99.99
2019-06-10T06:28:43.047Z,99.99
2019-06-10T06:29:43.129Z,99.99
2019-06-10T06:30:42.270Z,99.99
2019-06-10T06:31:42.987Z,99.99
2019-06-10T06:32:43.561Z,99.99
2019-06-10T06:33:43.213Z,99.99
2019-06-10T06:34:43.153Z,99.99
2019-06-10T06:35:46.049Z,99.99
2019-06-10T06:36:42.331Z,99.99
2019-06-10T06:37:42.821Z,99.99
2019-06-10T06:38:43.901Z,99.99
2019-06-10T06:39:42.883Z,99.98
2019-06-10T06:40:43.530Z,98.44
2019-06-10T06:41:42.748Z,99.30
2019-06-10T06:42:44.987Z,99.59
2019-06-10T06:43:45.033Z,98.72
2019-06-10T06:44:43.347Z,99.11
2019-06-10T06:45:42.620Z,98.54
2019-06-10T06:46:42.911Z,98.44
2019-06-10T06:47:43.744Z,99.99
2019-06-10T06:48:43.832Z,97.72
2019-06-10T06:49:42.526Z,97.33
2019-06-10T06:51:00.443Z,96.51
2019-06-10T06:51:54.006Z,95.94
2019-06-10T06:53:14.598Z,95.16
2019-06-10T06:53:50.882Z,94.87
2019-06-10T06:54:42.456Z,95.89
2019-06-10T06:55:43.307Z,94.54
2019-06-10T06:56:43.779Z,94.15
2019-06-10T06:57:43.359Z,93.71
2019-06-10T06:58:43.293Z,92.94
2019-06-10T06:59:43.197Z,92.08
2019-06-10T07:00:59.763Z,92.27
2019-06-10T07:01:44.081Z,91.44
2019-06-10T07:02:43.608Z,91.64
2019-06-10T07:03:44.976Z,90.77
2019-06-10T07:04:43.288Z,90.48
2019-06-10T07:05:43.336Z,89.90
2019-06-10T07:06:43.181Z,88.55
2019-06-10T07:07:43.334Z,87.97
2019-06-10T07:08:51.805Z,89.13
2019-06-10T07:09:43.340Z,87.97
2019-06-10T07:10:43.524Z,89.23
2019-06-10T07:11:44.899Z,89.51
2019-06-10T07:12:43.940Z,90.14
2019-06-10T07:13:45.632Z,88.69
2019-06-10T07:14:44.805Z,89.27
2019-06-10T07:15:46.563Z,89.61
2019-06-10T07:16:45.987Z,88.93
2019-06-10T07:17:45.568Z,89.41
2019-06-10T07:18:49.576Z,88.83
2019-06-10T07:19:45.674Z,86.56
2019-06-10T07:20:45.649Z,85.69
2019-06-10T07:22:02.748Z,85.69
2019-06-10T07:22:46.310Z,85.88
2019-06-10T07:23:46.556Z,85.98
2019-06-10T07:24:47.089Z,85.11
2019-06-10T07:25:45.490Z,85.88
2019-06-10T07:26:49.548Z,85.88
2019-06-10T07:27:45.089Z,84.72
2019-06-10T07:28:46.663Z,85.40
2019-06-10T07:29:47.025Z,85.21
2019-06-10T07:30:47.223Z,86.69
2019-06-10T07:31:45.946Z,84.67
2019-06-10T07:32:46.546Z,84.86
2019-06-10T07:33:45.952Z,84.32
2019-06-10T07:34:46.455Z,82.78
2019-06-10T07:35:45.039Z,81.32
2019-06-10T07:36:44.117Z,80.51
2019-06-10T07:37:44.476Z,81.09
2019-06-10T07:38:47.074Z,81.38
2019-06-10T07:39:45.249Z,80.55
2019-06-10T07:40:45.483Z,78.87
2019-06-10T07:41:47.059Z,77.65
2019-06-10T07:43:48.969Z,78.87
2019-06-10T07:44:44.008Z,78.29
2019-06-10T07:45:47.394Z,79.54
2019-06-10T07:46:45.196Z,76.84
2019-06-10T07:47:45.211Z,78.06
2019-06-10T07:48:46.179Z,81.09
2019-06-10T07:49:44.278Z,80.90
2019-06-10T07:50:44.274Z,78.38
2019-06-10T07:51:45.857Z,78.77
2019-06-10T07:52:45.035Z,78.09
2019-06-10T07:53:45.113Z,78.29
2019-06-10T07:54:44.004Z,79.35
2019-06-10T07:55:46.201Z,79.35
2019-06-10T07:56:49.816Z,79.25
2019-06-10T07:57:44.360Z,78.67
2019-06-10T07:58:45.415Z,78.48
2019-06-10T07:59:44.531Z,76.84
2019-06-10T08:00:46.526Z,77.03
2019-06-10T08:01:48.798Z,77.22
2019-06-10T08:02:44.215Z,76.51
2019-06-10T08:03:46.063Z,77.00
2019-06-10T08:04:44.199Z,76.80
2019-06-10T08:05:44.468Z,77.38
2019-06-10T08:06:44.067Z,77.86
2019-06-10T08:07:44.093Z,77.86
2019-06-10T08:08:45.037Z,78.54
2019-06-10T08:09:44.292Z,78.48
2019-06-10T08:10:44.865Z,78.48
2019-06-10T08:11:46.539Z,78.67
2019-06-10T08:12:44.789Z,78.58
2019-06-10T08:13:45.571Z,78.09
2019-06-10T08:14:43.966Z,77.19
2019-06-10T08:15:44.663Z,77.48
2019-06-10T08:16:45.067Z,77.57
2019-06-10T08:17:43.010Z,78.34
2019-06-10T08:19:12.342Z,78.06
2019-06-10T08:19:48.490Z,78.83
2019-06-10T08:20:43.879Z,79.31
2019-06-10T08:21:47.046Z,79.06
2019-06-10T08:22:50.799Z,77.90
2019-06-10T08:23:45.048Z,77.80
2019-06-10T08:24:43.955Z,79.45
2019-06-10T08:25:46.834Z,78.48
2019-06-10T08:26:44.270Z,79.45
2019-06-10T08:27:45.381Z,78.42
2019-06-10T08:28:45.120Z,78.91
2019-06-10T08:29:46.143Z,77.94
2019-06-10T08:30:44.530Z,77.88
2019-06-10T08:31:47.540Z,77.01
2019-06-10T08:32:45.060Z,76.82
2019-06-10T08:33:45.596Z,77.82
2019-06-10T08:34:44.623Z,78.99
2019-06-10T08:35:49.501Z,76.76
2019-06-10T08:36:48.270Z,76.76
2019-06-10T08:37:43.224Z,76.51
2019-06-10T08:38:44.964Z,76.51
2019-06-10T08:39:43.144Z,76.51
2019-06-10T08:40:44.963Z,75.48
2019-06-10T08:41:44.077Z,74.45
2019-06-10T08:42:44.123Z,73.96
2019-06-10T08:43:45.171Z,73.67
2019-06-10T08:44:43.975Z,70.61
2019-06-10T08:45:44.150Z,71.48
2019-06-10T08:46:44.987Z,71.48
2019-06-10T08:47:45.661Z,70.80
2019-06-10T08:48:45.786Z,70.21
2019-06-10T08:49:44.559Z,70.80
2019-06-10T08:50:46.539Z,69.89
2019-06-10T08:51:46.821Z,69.12
2019-06-10T08:52:53.915Z,68.63
2019-06-10T08:53:45.001Z,69.70
2019-06-10T08:54:46.065Z,69.21
2019-06-10T08:55:44.913Z,69.60
2019-06-10T08:56:46.850Z,69.85
2019-06-10T08:57:46.855Z,70.05
2019-06-10T08:58:46.334Z,71.12
2019-06-10T08:59:46.071Z,70.92
2019-06-10T09:00:45.075Z,71.64
2019-06-10T09:01:48.329Z,72.12
2019-06-10T09:02:45.953Z,69.89
2019-06-10T09:03:45.330Z,69.89
2019-06-10T09:04:45.590Z,70.03
2019-06-10T09:05:46.509Z,69.83
2019-06-10T09:06:47.183Z,69.54
2019-06-10T09:07:46.401Z,70.73
2019-06-10T09:08:46.343Z,69.80
2019-06-10T09:09:45.755Z,69.60
2019-06-10T09:10:46.224Z,68.15
2019-06-10T09:11:46.887Z,67.96
2019-06-10T09:12:46.033Z,68.35
2019-06-10T09:13:46.300Z,68.15
2019-06-10T09:14:43.994Z,66.63
2019-06-10T09:15:45.000Z,66.24
2019-06-10T09:16:45.869Z,67.31
2019-06-10T09:17:46.751Z,68.32
2019-06-10T09:18:46.490Z,65.79
2019-06-10T09:19:46.406Z,65.01
2019-06-10T09:20:45.905Z,64.07
2019-06-10T09:21:48.202Z,64.17
2019-06-10T09:22:47.247Z,63.90
2019-06-10T09:23:47.136Z,64.13
2019-06-10T09:24:47.148Z,63.26
2019-06-10T09:25:48.583Z,63.55
2019-06-10T09:26:45.050Z,62.06
2019-06-10T09:27:46.603Z,63.03
2019-06-10T09:28:48.707Z,63.90
2019-06-10T09:29:47.857Z,64.78
2019-06-10T09:30:48.802Z,65.46
2019-06-10T09:31:46.831Z,64.52
2019-06-10T09:32:48.513Z,64.10
2019-06-10T09:33:49.898Z,65.66
2019-06-10T09:34:47.149Z,66.96
2019-06-10T09:35:46.136Z,63.97
2019-06-10T09:36:46.604Z,63.90
2019-06-10T09:37:49.244Z,63.61
2019-06-10T09:38:48.273Z,63.81
2019-06-10T09:39:49.847Z,65.01
2019-06-10T09:40:48.385Z,64.06
2019-06-10T09:41:51.889Z,61.82
2019-06-10T09:42:46.284Z,59.64
2019-06-10T09:43:48.926Z,61.66
2019-06-10T09:44:45.878Z,61.96
2019-06-10T09:45:45.863Z,64.39
2019-06-10T09:46:46.954Z,63.51
2019-06-10T09:47:47.145Z,64.62
2019-06-10T09:48:47.040Z,62.76
2019-06-10T09:49:46.139Z,63.35
2019-06-10T09:50:48.752Z,62.38
2019-06-10T09:51:46.751Z,62.57
2019-06-10T09:52:47.573Z,63.64
2019-06-10T09:53:54.538Z,63.74
2019-06-10T09:54:47.232Z,63.45
2019-06-10T09:55:46.086Z,62.25
2019-06-10T09:56:45.592Z,62.35
2019-06-10T09:57:45.997Z,64.20
2019-06-10T09:58:46.051Z,63.78
2019-06-10T09:59:46.113Z,62.29
2019-06-10T10:00:48.405Z,62.84
2019-06-10T10:01:47.298Z,64.59
2019-06-10T10:02:47.450Z,65.82
2019-06-10T10:03:47.974Z,65.50
2019-06-10T10:04:47.744Z,65.50
2019-06-10T10:05:55.987Z,66.14
2019-06-10T10:06:46.662Z,66.14
2019-06-10T10:07:48.237Z,66.63
2019-06-10T10:08:46.127Z,67.08
2019-06-10T10:09:48.186Z,67.18
2019-06-10T10:10:47.525Z,68.25
2019-06-10T10:11:45.802Z,68.38
2019-06-10T10:12:44.488Z,69.06
2019-06-10T10:13:46.136Z,68.70
2019-06-10T10:14:46.072Z,67.54
2019-06-10T10:15:43.619Z,66.40
2019-06-10T10:16:47.884Z,65.27
2019-06-10T10:17:46.363Z,65.27
2019-06-10T10:18:48.321Z,65.46
2019-06-10T10:19:47.852Z,66.08
2019-06-10T10:20:46.807Z,65.20
2019-06-10T10:21:46.906Z,65.69
2019-06-10T10:22:45.413Z,64.62
2019-06-10T10:23:54.200Z,64.00
2019-06-10T10:24:44.587Z,63.68
2019-06-10T10:25:46.256Z,65.82
2019-06-10T10:26:47.129Z,66.50
2019-06-10T10:27:46.919Z,68.15
2019-06-10T10:28:44.628Z,66.44
2019-06-10T10:29:45.396Z,66.76
2019-06-10T10:30:46.061Z,66.17
2019-06-10T10:31:47.403Z,64.72
2019-06-10T10:32:47.115Z,64.13
2019-06-10T10:33:44.293Z,63.26
2019-06-10T10:34:45.282Z,64.65
2019-06-10T10:35:46.059Z,63.84
2019-06-10T10:36:45.401Z,64.17
2019-06-10T10:37:44.576Z,65.14
2019-06-10T10:38:44.742Z,64.65
2019-06-10T10:39:44.688Z,65.72
2019-06-10T10:40:45.719Z,66.11
2019-06-10T10:41:45.174Z,65.85
2019-06-10T10:42:48.554Z,64.59
2019-06-10T10:43:46.843Z,65.63
2019-06-10T10:44:47.684Z,64.94
2019-06-10T10:45:47.440Z,63.97
2019-06-10T10:46:44.234Z,64.62
2019-06-10T10:47:44.906Z,65.50
2019-06-10T10:48:44.907Z,65.08
2019-06-10T10:49:44.944Z,64.13
2019-06-10T10:50:44.248Z,64.81
2019-06-10T10:51:44.841Z,64.91
2019-06-10T10:52:45.054Z,63.97
2019-06-10T10:53:48.456Z,64.75
2019-06-10T10:54:45.106Z,67.02
2019-06-10T10:55:45.183Z,66.27
2019-06-10T10:56:46.189Z,64.39
2019-06-10T10:57:43.785Z,60.81
2019-06-10T10:58:46.979Z,59.86
2019-06-10T10:59:45.099Z,59.86
2019-06-10T11:00:45.473Z,59.86
2019-06-10T11:01:44.434Z,60.28
2019-06-10T11:02:44.968Z,60.64
2019-06-10T11:03:45.734Z,61.84
2019-06-10T11:04:44.269Z,61.74
2019-06-10T11:05:46.304Z,59.67
2019-06-10T11:06:44.466Z,63.57
2019-06-10T11:07:44.481Z,61.82
2019-06-10T11:08:46.263Z,59.86
2019-06-10T11:09:44.787Z,60.55
2019-06-10T11:10:45.738Z,60.45
2019-06-10T11:11:45.526Z,61.62
2019-06-10T11:12:44.956Z,61.91
2019-06-10T11:13:45.414Z,60.25
2019-06-10T11:14:44.882Z,59.86
2019-06-10T11:15:45.683Z,59.64
2019-06-10T11:16:45.253Z,60.13
2019-06-10T11:17:45.093Z,61.00
2019-06-10T11:18:45.195Z,61.56
2019-06-10T11:19:45.173Z,62.82
2019-06-10T11:20:45.217Z,63.44
2019-06-10T11:21:45.221Z,63.51
2019-06-10T11:22:45.727Z,62.15
2019-06-10T11:23:44.087Z,60.78
2019-06-10T11:24:44.932Z,61.76
2019-06-10T11:25:44.113Z,63.70
2019-06-10T11:26:44.125Z,65.46
2019-06-10T11:27:44.132Z,64.78
2019-06-10T11:28:45.243Z,65.92
2019-06-10T11:29:44.161Z,64.06
2019-06-10T11:30:45.247Z,63.28
2019-06-10T11:31:44.319Z,63.87
2019-06-10T11:32:45.998Z,63.87
2019-06-10T11:33:44.203Z,65.63
2019-06-10T11:34:44.221Z,63.48
2019-06-10T11:35:44.226Z,64.06
2019-06-10T11:36:44.235Z,62.70
2019-06-10T11:37:44.253Z,62.50
2019-06-10T11:38:44.262Z,63.77
2019-06-10T11:39:44.269Z,61.24
2019-06-10T11:40:44.294Z,61.92
2019-06-10T11:41:44.293Z,62.41
2019-06-10T11:42:44.306Z,62.50
2019-06-10T11:43:44.320Z,60.36
2019-06-10T11:44:44.326Z,62.21
2019-06-10T11:45:48.922Z,64.36
2019-06-10T11:46:44.346Z,62.50
2019-06-10T11:47:44.357Z,62.60
2019-06-10T11:48:44.486Z,64.16
2019-06-10T11:49:44.384Z,65.63
2019-06-10T11:50:44.393Z,63.38
2019-06-10T11:51:44.403Z,62.12
2019-06-10T11:52:44.419Z,63.96
2019-06-10T11:53:44.433Z,64.75
2019-06-10T11:54:55.860Z,64.26
2019-06-10T11:55:44.447Z,63.38
2019-06-10T11:56:44.461Z,64.36
2019-06-10T11:57:44.471Z,63.35
2019-06-10T11:58:44.487Z,65.20
2019-06-10T11:59:44.509Z,64.29
2019-06-10T12:00:44.502Z,65.36
2019-06-10T12:01:44.513Z,66.34
2019-06-10T12:02:44.933Z,66.63
2019-06-10T12:03:44.536Z,68.58
2019-06-10T12:04:44.543Z,66.53
2019-06-10T12:05:44.558Z,65.17
2019-06-10T12:06:44.564Z,65.33
2019-06-10T12:07:44.580Z,64.07
2019-06-10T12:08:44.596Z,64.26
2019-06-10T12:09:44.621Z,65.33
2019-06-10T12:10:44.609Z,65.59
2019-06-10T12:11:44.621Z,66.76
2019-06-10T12:12:44.631Z,66.86
2019-06-10T12:13:44.640Z,69.97
2019-06-10T12:14:44.653Z,69.68
2019-06-10T12:16:30.495Z,65.88
2019-06-10T12:17:17.781Z,65.98
2019-06-10T12:17:51.047Z,66.47
2019-06-10T12:18:44.691Z,68.26
2019-06-10T12:19:44.704Z,68.26
2019-06-10T12:20:44.713Z,68.06
2019-06-10T12:21:44.721Z,67.86
2019-06-10T12:22:44.732Z,68.16
2019-06-10T12:23:44.757Z,65.53
2019-06-10T12:24:44.752Z,63.87
2019-06-10T12:25:47.780Z,66.50
2019-06-10T12:26:44.778Z,65.53
2019-06-10T12:27:44.786Z,64.69
2019-06-10T12:28:44.794Z,65.36
2019-06-10T12:29:44.808Z,64.39
2019-06-10T12:30:44.820Z,66.34
2019-06-10T12:31:44.819Z,64.00
2019-06-10T12:32:44.831Z,64.78
2019-06-10T12:33:44.843Z,65.46
2019-06-10T12:34:46.320Z,65.46
2019-06-10T12:35:44.863Z,63.61
2019-06-10T12:36:44.879Z,63.32
2019-06-10T12:37:44.886Z,65.59
2019-06-10T12:38:44.905Z,65.07
2019-06-10T12:39:44.899Z,65.46
2019-06-10T12:40:44.916Z,66.34
2019-06-10T12:41:45.004Z,66.53
2019-06-10T12:42:44.933Z,65.82
2019-06-10T12:43:44.941Z,66.99
2019-06-10T12:44:44.956Z,65.92
2019-06-10T12:45:45.043Z,66.08
2019-06-10T12:46:44.988Z,66.56
2019-06-10T12:47:44.979Z,66.17
2019-06-10T12:48:44.990Z,67.54
2019-06-10T12:49:44.998Z,67.99
2019-06-10T12:50:45.014Z,68.38
2019-06-10T12:51:45.018Z,70.23
2019-06-10T12:52:45.079Z,70.13
2019-06-10T12:53:45.039Z,70.95
2019-06-10T12:54:45.051Z,69.68
2019-06-10T12:55:47.122Z,69.97
2019-06-10T12:56:45.067Z,69.58
2019-06-10T12:57:45.078Z,68.51